sensor_id;sensor_type;location;lat;lon;timestamp;temperature;humidity
27567;DHT22;15006;48.584;9.186;2023-12-14T00:00:30;2.00;99.90
27567;DHT22;15006;48.584;9.186;2023-12-14T00:02:56;2.00;99.90
27567;DHT22;15006;48.584;9.186;2023-12-14T00:05:23;2.00;99.90
27567;DHT22;15006;48.584;9.186;2023-12-14T00:07:49;2.10;99.90
27567;DHT22;15006;48.584;9.186;2023-12-14T00:10:15;2.10;99.90
27567;DHT22;15006;48.584;9.186;2023-12-14T00:12:44;2.10;99.90
27567;DHT22;15006;48.584;9.186;2023-12-14T00:15:10;2.20;99.90
27567;DHT22;15006;48.584;9.186;2023-12-14T00:17:36;2.20;99.90
27567;DHT22;15006;48.584;9.186;2023-12-14T00:20:02;2.20;99.90
27567;DHT22;15006;48.584;9.186;2023-12-14T00:22:29;2.20;99.90
27567;DHT22;15006;48.584;9.186;2023-12-14T00:24:55;2.20;99.90
27567;DHT22;15006;48.584;9.186;2023-12-14T00:27:21;2.20;99.90
27567;DHT22;15006;48.584;9.186;2023-12-14T00:29:47;2.20;99.90
27567;DHT22;15006;48.584;9.186;2023-12-14T00:32:13;2.30;99.90
27567;DHT22;15006;48.584;9.186;2023-12-14T00:34:38;2.30;99.90
27567;DHT22;15006;48.584;9.186;2023-12-14T00:37:06;2.30;99.90
27567;DHT22;15006;48.584;9.186;2023-12-14T00:39:31;2.20;99.90
27567;DHT22;15006;48.584;9.186;2023-12-14T00:41:57;2.30;99.90
27567;DHT22;15006;48.584;9.186;2023-12-14T00:44:23;2.30;99.90
27567;DHT22;15006;48.584;9.186;2023-12-14T00:46:49;2.30;99.90
27567;DHT22;15006;48.584;9.186;2023-12-14T00:49:15;2.30;99.90
27567;DHT22;15006;48.584;9.186;2023-12-14T00:51:43;2.30;99.90
27567;DHT22;15006;48.584;9.186;2023-12-14T00:54:09;2.30;99.90
27567;DHT22;15006;48.584;9.186;2023-12-14T00:56:35;2.30;99.90
27567;DHT22;15006;48.584;9.186;2023-12-14T00:59:01;2.30;99.90
27567;DHT22;15006;48.584;9.186;2023-12-14T01:01:27;2.30;99.90
27567;DHT22;15006;48.584;9.186;2023-12-14T01:03:53;2.30;99.90
27567;DHT22;15006;48.584;9.186;2023-12-14T01:06:19;2.30;99.90
27567;DHT22;15006;48.584;9.186;2023-12-14T01:08:45;2.30;99.90
27567;DHT22;15006;48.584;9.186;2023-12-14T01:11:11;2.40;99.90
27567;DHT22;15006;48.584;9.186;2023-12-14T01:13:37;2.40;99.90
27567;DHT22;15006;48.584;9.186;2023-12-14T01:16:03;2.40;99.90
27567;DHT22;15006;48.584;9.186;2023-12-14T01:18:29;2.40;99.90
27567;DHT22;15006;48.584;9.186;2023-12-14T01:20:55;2.30;99.90
27567;DHT22;15006;48.584;9.186;2023-12-14T01:23:21;2.40;99.90
27567;DHT22;15006;48.584;9.186;2023-12-14T01:25:47;2.40;99.90
27567;DHT22;15006;48.584;9.186;2023-12-14T01:28:13;2.40;99.90
27567;DHT22;15006;48.584;9.186;2023-12-14T01:30:39;2.40;99.90
27567;DHT22;15006;48.584;9.186;2023-12-14T01:33:05;2.40;99.90
27567;DHT22;15006;48.584;9.186;2023-12-14T01:35:31;2.40;99.90
27567;DHT22;15006;48.584;9.186;2023-12-14T01:37:57;2.40;99.90
27567;DHT22;15006;48.584;9.186;2023-12-14T01:40:23;2.40;99.90
27567;DHT22;15006;48.584;9.186;2023-12-14T01:42:49;2.50;99.90
27567;DHT22;15006;48.584;9.186;2023-12-14T01:45:15;2.50;99.90
27567;DHT22;15006;48.584;9.186;2023-12-14T01:47:42;2.50;99.90
27567;DHT22;15006;48.584;9.186;2023-12-14T01:50:09;2.50;99.90
27567;DHT22;15006;48.584;9.186;2023-12-14T01:52:35;2.50;99.90
27567;DHT22;15006;48.584;9.186;2023-12-14T01:55:01;2.60;99.90
27567;DHT22;15006;48.584;9.186;2023-12-14T01:57:28;2.60;99.90
27567;DHT22;15006;48.584;9.186;2023-12-14T01:59:54;2.60;99.90
27567;DHT22;15006;48.584;9.186;2023-12-14T02:02:20;2.60;99.90
27567;DHT22;15006;48.584;9.186;2023-12-14T02:04:46;2.70;99.90
27567;DHT22;15006;48.584;9.186;2023-12-14T02:07:12;2.60;99.90
27567;DHT22;15006;48.584;9.186;2023-12-14T02:09:38;2.60;99.90
27567;DHT22;15006;48.584;9.186;2023-12-14T02:12:05;2.70;99.90
27567;DHT22;15006;48.584;9.186;2023-12-14T02:14:31;2.70;99.90
27567;DHT22;15006;48.584;9.186;2023-12-14T02:16:57;2.70;99.90
27567;DHT22;15006;48.584;9.186;2023-12-14T02:19:23;2.70;99.90
27567;DHT22;15006;48.584;9.186;2023-12-14T02:21:49;2.70;99.90
27567;DHT22;15006;48.584;9.186;2023-12-14T02:24:15;2.70;99.90
27567;DHT22;15006;48.584;9.186;2023-12-14T02:26:41;2.60;99.90
27567;DHT22;15006;48.584;9.186;2023-12-14T02:29:07;2.60;99.90
27567;DHT22;15006;48.584;9.186;2023-12-14T02:31:33;2.60;99.90
27567;DHT22;15006;48.584;9.186;2023-12-14T02:33:59;2.60;99.90
27567;DHT22;15006;48.584;9.186;2023-12-14T02:36:25;2.60;99.90
27567;DHT22;15006;48.584;9.186;2023-12-14T02:38:51;2.60;99.90
27567;DHT22;15006;48.584;9.186;2023-12-14T02:41:17;2.60;99.90
27567;DHT22;15006;48.584;9.186;2023-12-14T02:43:43;2.60;99.90
27567;DHT22;15006;48.584;9.186;2023-12-14T02:46:09;2.60;99.90
27567;DHT22;15006;48.584;9.186;2023-12-14T02:48:37;2.50;99.90
27567;DHT22;15006;48.584;9.186;2023-12-14T02:51:03;2.60;99.90
27567;DHT22;15006;48.584;9.186;2023-12-14T02:53:29;2.60;99.90
27567;DHT22;15006;48.584;9.186;2023-12-14T02:55:55;2.60;99.90
27567;DHT22;15006;48.584;9.186;2023-12-14T02:58:21;2.60;99.90
27567;DHT22;15006;48.584;9.186;2023-12-14T03:00:47;2.60;99.90
27567;DHT22;15006;48.584;9.186;2023-12-14T03:03:13;2.60;99.90
27567;DHT22;15006;48.584;9.186;2023-12-14T03:05:39;2.60;99.90
27567;DHT22;15006;48.584;9.186;2023-12-14T03:08:05;2.60;99.90
27567;DHT22;15006;48.584;9.186;2023-12-14T03:10:31;2.70;99.90
27567;DHT22;15006;48.584;9.186;2023-12-14T03:12:57;2.60;99.90
27567;DHT22;15006;48.584;9.186;2023-12-14T03:15:23;2.60;99.90
27567;DHT22;15006;48.584;9.186;2023-12-14T03:17:49;2.70;99.90
27567;DHT22;15006;48.584;9.186;2023-12-14T03:20:15;2.70;99.90
27567;DHT22;15006;48.584;9.186;2023-12-14T03:22:41;2.70;99.90
27567;DHT22;15006;48.584;9.186;2023-12-14T03:25:08;2.70;99.90
27567;DHT22;15006;48.584;9.186;2023-12-14T03:27:35;2.70;99.90
27567;DHT22;15006;48.584;9.186;2023-12-14T03:30:01;2.70;99.90
27567;DHT22;15006;48.584;9.186;2023-12-14T03:32:29;2.70;99.90
27567;DHT22;15006;48.584;9.186;2023-12-14T03:34:55;2.70;99.90
27567;DHT22;15006;48.584;9.186;2023-12-14T03:37:21;2.80;99.90
27567;DHT22;15006;48.584;9.186;2023-12-14T03:39:47;2.80;99.90
27567;DHT22;15006;48.584;9.186;2023-12-14T03:42:13;2.80;99.90
27567;DHT22;15006;48.584;9.186;2023-12-14T03:44:41;2.80;99.90
27567;DHT22;15006;48.584;9.186;2023-12-14T03:47:07;2.80;99.90
27567;DHT22;15006;48.584;9.186;2023-12-14T03:49:37;2.90;99.90
27567;DHT22;15006;48.584;9.186;2023-12-14T03:52:04;2.80;99.90
27567;DHT22;15006;48.584;9.186;2023-12-14T03:54:30;2.80;99.90
27567;DHT22;15006;48.584;9.186;2023-12-14T03:56:56;2.80;99.90
27567;DHT22;15006;48.584;9.186;2023-12-14T03:59:22;2.80;99.90
27567;DHT22;15006;48.584;9.186;2023-12-14T04:01:48;2.80;99.90
27567;DHT22;15006;48.584;9.186;2023-12-14T04:04:14;2.90;99.90
27567;DHT22;15006;48.584;9.186;2023-12-14T04:06:40;2.90;99.90
27567;DHT22;15006;48.584;9.186;2023-12-14T04:09:06;2.80;99.90
27567;DHT22;15006;48.584;9.186;2023-12-14T04:11:32;2.80;99.90
27567;DHT22;15006;48.584;9.186;2023-12-14T04:13:58;2.80;99.90
27567;DHT22;15006;48.584;9.186;2023-12-14T04:16:24;2.90;99.90
27567;DHT22;15006;48.584;9.186;2023-12-14T04:18:50;2.90;99.90
27567;DHT22;15006;48.584;9.186;2023-12-14T04:21:16;2.90;99.90
27567;DHT22;15006;48.584;9.186;2023-12-14T04:23:42;2.90;99.90
27567;DHT22;15006;48.584;9.186;2023-12-14T04:26:08;2.90;99.90
27567;DHT22;15006;48.584;9.186;2023-12-14T04:28:35;3.00;99.90
27567;DHT22;15006;48.584;9.186;2023-12-14T04:31:01;2.90;99.90
27567;DHT22;15006;48.584;9.186;2023-12-14T04:33:28;3.00;99.90
27567;DHT22;15006;48.584;9.186;2023-12-14T04:35:53;3.00;99.90
27567;DHT22;15006;48.584;9.186;2023-12-14T04:38:19;3.00;99.90
27567;DHT22;15006;48.584;9.186;2023-12-14T04:40:45;3.00;99.90
27567;DHT22;15006;48.584;9.186;2023-12-14T04:43:11;3.00;99.90
27567;DHT22;15006;48.584;9.186;2023-12-14T04:45:38;3.00;99.90
27567;DHT22;15006;48.584;9.186;2023-12-14T04:48:04;3.00;99.90
27567;DHT22;15006;48.584;9.186;2023-12-14T04:50:30;3.00;99.90
27567;DHT22;15006;48.584;9.186;2023-12-14T04:52:56;3.00;99.90
27567;DHT22;15006;48.584;9.186;2023-12-14T04:55:22;3.10;99.90
27567;DHT22;15006;48.584;9.186;2023-12-14T04:57:48;3.10;99.90
27567;DHT22;15006;48.584;9.186;2023-12-14T05:00:15;3.10;99.90
27567;DHT22;15006;48.584;9.186;2023-12-14T05:02:41;3.10;99.90
27567;DHT22;15006;48.584;9.186;2023-12-14T05:05:07;3.10;99.90
27567;DHT22;15006;48.584;9.186;2023-12-14T05:07:33;3.10;99.90
27567;DHT22;15006;48.584;9.186;2023-12-14T05:09:58;3.10;99.90
27567;DHT22;15006;48.584;9.186;2023-12-14T05:12:24;3.10;99.90
27567;DHT22;15006;48.584;9.186;2023-12-14T05:14:52;3.10;99.90
27567;DHT22;15006;48.584;9.186;2023-12-14T05:17:18;3.10;99.90
27567;DHT22;15006;48.584;9.186;2023-12-14T05:19:44;3.10;99.90
27567;DHT22;15006;48.584;9.186;2023-12-14T05:22:11;3.10;99.90
27567;DHT22;15006;48.584;9.186;2023-12-14T05:24:38;3.10;99.90
27567;DHT22;15006;48.584;9.186;2023-12-14T05:27:04;3.00;99.90
27567;DHT22;15006;48.584;9.186;2023-12-14T05:29:30;3.10;99.90
27567;DHT22;15006;48.584;9.186;2023-12-14T05:31:58;3.00;99.90
27567;DHT22;15006;48.584;9.186;2023-12-14T05:34:24;3.00;99.90
27567;DHT22;15006;48.584;9.186;2023-12-14T05:36:50;3.00;99.90
27567;DHT22;15006;48.584;9.186;2023-12-14T05:39:16;3.00;99.90
27567;DHT22;15006;48.584;9.186;2023-12-14T05:41:42;3.00;99.90
27567;DHT22;15006;48.584;9.186;2023-12-14T05:44:08;3.00;99.90
27567;DHT22;15006;48.584;9.186;2023-12-14T05:46:35;3.00;99.90
27567;DHT22;15006;48.584;9.186;2023-12-14T05:49:01;3.00;99.90
27567;DHT22;15006;48.584;9.186;2023-12-14T05:51:29;3.00;99.90
27567;DHT22;15006;48.584;9.186;2023-12-14T05:53:56;3.00;99.90
27567;DHT22;15006;48.584;9.186;2023-12-14T05:56:22;3.00;99.90
27567;DHT22;15006;48.584;9.186;2023-12-14T05:58:48;3.00;99.90
27567;DHT22;15006;48.584;9.186;2023-12-14T06:01:17;3.00;99.90
27567;DHT22;15006;48.584;9.186;2023-12-14T06:03:44;2.90;99.90
27567;DHT22;15006;48.584;9.186;2023-12-14T06:06:11;3.00;99.90
27567;DHT22;15006;48.584;9.186;2023-12-14T06:08:39;3.00;99.90
27567;DHT22;15006;48.584;9.186;2023-12-14T06:11:05;3.00;99.90
27567;DHT22;15006;48.584;9.186;2023-12-14T06:13:32;3.00;99.90
27567;DHT22;15006;48.584;9.186;2023-12-14T06:15:58;3.00;99.90
27567;DHT22;15006;48.584;9.186;2023-12-14T06:18:25;3.00;99.90
27567;DHT22;15006;48.584;9.186;2023-12-14T06:20:51;3.00;99.90
27567;DHT22;15006;48.584;9.186;2023-12-14T06:23:18;3.00;99.90
27567;DHT22;15006;48.584;9.186;2023-12-14T06:25:44;2.90;99.90
27567;DHT22;15006;48.584;9.186;2023-12-14T06:28:10;3.00;99.90
27567;DHT22;15006;48.584;9.186;2023-12-14T06:30:35;3.00;99.90
27567;DHT22;15006;48.584;9.186;2023-12-14T06:33:01;2.90;99.90
27567;DHT22;15006;48.584;9.186;2023-12-14T06:35:28;2.90;99.90
27567;DHT22;15006;48.584;9.186;2023-12-14T06:37:54;2.90;99.90
27567;DHT22;15006;48.584;9.186;2023-12-14T06:40:20;2.90;99.90
27567;DHT22;15006;48.584;9.186;2023-12-14T06:42:46;2.80;99.90
27567;DHT22;15006;48.584;9.186;2023-12-14T06:45:12;2.90;99.90
27567;DHT22;15006;48.584;9.186;2023-12-14T06:47:38;2.90;99.90
27567;DHT22;15006;48.584;9.186;2023-12-14T06:50:04;2.90;99.90
27567;DHT22;15006;48.584;9.186;2023-12-14T06:52:30;2.90;99.90
27567;DHT22;15006;48.584;9.186;2023-12-14T06:54:56;2.90;99.90
27567;DHT22;15006;48.584;9.186;2023-12-14T06:57:22;2.90;99.90
27567;DHT22;15006;48.584;9.186;2023-12-14T06:59:48;2.90;99.90
27567;DHT22;15006;48.584;9.186;2023-12-14T07:02:14;2.90;99.90
27567;DHT22;15006;48.584;9.186;2023-12-14T07:04:40;2.90;99.90
27567;DHT22;15006;48.584;9.186;2023-12-14T07:07:06;2.90;99.90
27567;DHT22;15006;48.584;9.186;2023-12-14T07:09:32;2.90;99.90
27567;DHT22;15006;48.584;9.186;2023-12-14T07:11:58;2.90;99.90
27567;DHT22;15006;48.584;9.186;2023-12-14T07:14:26;3.00;99.90
27567;DHT22;15006;48.584;9.186;2023-12-14T07:16:52;3.00;99.90
27567;DHT22;15006;48.584;9.186;2023-12-14T07:19:18;3.00;99.90
27567;DHT22;15006;48.584;9.186;2023-12-14T07:21:44;3.00;99.90
27567;DHT22;15006;48.584;9.186;2023-12-14T07:24:10;3.00;99.90
27567;DHT22;15006;48.584;9.186;2023-12-14T07:26:36;3.00;99.90
27567;DHT22;15006;48.584;9.186;2023-12-14T07:29:02;3.00;99.90
27567;DHT22;15006;48.584;9.186;2023-12-14T07:31:28;3.10;99.90
27567;DHT22;15006;48.584;9.186;2023-12-14T07:33:55;3.10;99.90
27567;DHT22;15006;48.584;9.186;2023-12-14T07:36:21;3.10;99.90
27567;DHT22;15006;48.584;9.186;2023-12-14T07:38:48;3.10;99.90
27567;DHT22;15006;48.584;9.186;2023-12-14T07:41:14;3.20;99.90
27567;DHT22;15006;48.584;9.186;2023-12-14T07:43:40;3.20;99.90
27567;DHT22;15006;48.584;9.186;2023-12-14T07:46:06;3.20;99.90
27567;DHT22;15006;48.584;9.186;2023-12-14T07:48:32;3.20;99.90
27567;DHT22;15006;48.584;9.186;2023-12-14T07:50:58;3.30;99.90
27567;DHT22;15006;48.584;9.186;2023-12-14T07:53:24;3.30;99.90
27567;DHT22;15006;48.584;9.186;2023-12-14T07:55:50;3.30;99.90
27567;DHT22;15006;48.584;9.186;2023-12-14T07:58:16;3.30;99.90
27567;DHT22;15006;48.584;9.186;2023-12-14T08:00:42;3.30;99.90
27567;DHT22;15006;48.584;9.186;2023-12-14T08:03:08;3.20;99.90
27567;DHT22;15006;48.584;9.186;2023-12-14T08:05:34;3.30;99.90
27567;DHT22;15006;48.584;9.186;2023-12-14T08:07:59;3.20;99.90
27567;DHT22;15006;48.584;9.186;2023-12-14T08:10:25;3.20;99.90
27567;DHT22;15006;48.584;9.186;2023-12-14T08:12:51;3.20;99.90
27567;DHT22;15006;48.584;9.186;2023-12-14T08:15:17;3.20;99.90
27567;DHT22;15006;48.584;9.186;2023-12-14T08:17:44;3.20;99.90
27567;DHT22;15006;48.584;9.186;2023-12-14T08:20:10;3.20;99.90
27567;DHT22;15006;48.584;9.186;2023-12-14T08:22:38;3.30;99.90
27567;DHT22;15006;48.584;9.186;2023-12-14T08:25:14;3.30;99.90
27567;DHT22;15006;48.584;9.186;2023-12-14T08:27:41;3.30;99.90
27567;DHT22;15006;48.584;9.186;2023-12-14T08:30:08;3.30;99.90
27567;DHT22;15006;48.584;9.186;2023-12-14T08:32:34;3.30;99.90
27567;DHT22;15006;48.584;9.186;2023-12-14T08:35:00;3.30;99.90
27567;DHT22;15006;48.584;9.186;2023-12-14T08:37:26;3.30;99.90
27567;DHT22;15006;48.584;9.186;2023-12-14T08:39:52;3.40;99.90
27567;DHT22;15006;48.584;9.186;2023-12-14T08:42:18;3.40;99.90
27567;DHT22;15006;48.584;9.186;2023-12-14T08:44:44;3.40;99.90
27567;DHT22;15006;48.584;9.186;2023-12-14T08:47:10;3.40;99.90
27567;DHT22;15006;48.584;9.186;2023-12-14T08:49:36;3.40;99.90
27567;DHT22;15006;48.584;9.186;2023-12-14T08:52:02;3.40;99.90
27567;DHT22;15006;48.584;9.186;2023-12-14T08:54:30;3.40;99.90
27567;DHT22;15006;48.584;9.186;2023-12-14T08:56:55;3.40;99.90
27567;DHT22;15006;48.584;9.186;2023-12-14T08:59:21;3.40;99.90
27567;DHT22;15006;48.584;9.186;2023-12-14T09:01:47;3.40;99.90
27567;DHT22;15006;48.584;9.186;2023-12-14T09:04:13;3.40;99.90
27567;DHT22;15006;48.584;9.186;2023-12-14T09:06:39;3.50;99.90
27567;DHT22;15006;48.584;9.186;2023-12-14T09:09:08;3.50;99.90
27567;DHT22;15006;48.584;9.186;2023-12-14T09:11:34;3.50;99.90
27567;DHT22;15006;48.584;9.186;2023-12-14T09:14:02;3.50;99.90
27567;DHT22;15006;48.584;9.186;2023-12-14T09:16:28;3.60;99.90
27567;DHT22;15006;48.584;9.186;2023-12-14T09:18:54;3.60;99.90
27567;DHT22;15006;48.584;9.186;2023-12-14T09:21:20;3.60;99.90
27567;DHT22;15006;48.584;9.186;2023-12-14T09:23:47;3.70;99.90
27567;DHT22;15006;48.584;9.186;2023-12-14T09:26:14;3.70;99.90
27567;DHT22;15006;48.584;9.186;2023-12-14T09:28:40;3.70;99.90
27567;DHT22;15006;48.584;9.186;2023-12-14T09:31:06;3.80;99.90
27567;DHT22;15006;48.584;9.186;2023-12-14T09:33:32;3.80;99.90
27567;DHT22;15006;48.584;9.186;2023-12-14T09:35:58;3.90;99.90
27567;DHT22;15006;48.584;9.186;2023-12-14T09:38:24;3.90;99.90
27567;DHT22;15006;48.584;9.186;2023-12-14T09:40:50;4.00;99.90
27567;DHT22;15006;48.584;9.186;2023-12-14T09:43:16;4.00;99.90
27567;DHT22;15006;48.584;9.186;2023-12-14T09:45:42;4.00;99.90
27567;DHT22;15006;48.584;9.186;2023-12-14T09:48:11;4.10;99.90
27567;DHT22;15006;48.584;9.186;2023-12-14T09:50:41;4.00;99.90
27567;DHT22;15006;48.584;9.186;2023-12-14T09:53:10;4.10;99.90
27567;DHT22;15006;48.584;9.186;2023-12-14T09:55:36;4.20;99.90
27567;DHT22;15006;48.584;9.186;2023-12-14T09:58:02;4.20;99.90
27567;DHT22;15006;48.584;9.186;2023-12-14T10:00:39;4.30;99.90
27567;DHT22;15006;48.584;9.186;2023-12-14T10:03:23;4.30;99.90
27567;DHT22;15006;48.584;9.186;2023-12-14T10:05:52;4.30;99.90
27567;DHT22;15006;48.584;9.186;2023-12-14T10:08:22;4.40;99.90
27567;DHT22;15006;48.584;9.186;2023-12-14T10:10:50;4.40;99.90
27567;DHT22;15006;48.584;9.186;2023-12-14T10:13:19;4.50;99.90
27567;DHT22;15006;48.584;9.186;2023-12-14T10:15:47;4.60;99.90
27567;DHT22;15006;48.584;9.186;2023-12-14T10:18:24;4.60;99.90
27567;DHT22;15006;48.584;9.186;2023-12-14T10:20:50;4.70;99.90
27567;DHT22;15006;48.584;9.186;2023-12-14T10:23:17;4.70;99.90
27567;DHT22;15006;48.584;9.186;2023-12-14T10:25:43;4.80;99.90
27567;DHT22;15006;48.584;9.186;2023-12-14T10:28:13;4.80;99.90
27567;DHT22;15006;48.584;9.186;2023-12-14T10:30:40;4.80;99.90
27567;DHT22;15006;48.584;9.186;2023-12-14T10:33:06;4.80;99.90
27567;DHT22;15006;48.584;9.186;2023-12-14T10:35:32;4.80;99.90
27567;DHT22;15006;48.584;9.186;2023-12-14T10:38:02;4.80;99.90
27567;DHT22;15006;48.584;9.186;2023-12-14T10:40:30;4.80;99.90
27567;DHT22;15006;48.584;9.186;2023-12-14T10:42:59;4.90;99.90
27567;DHT22;15006;48.584;9.186;2023-12-14T10:45:32;4.90;99.90
27567;DHT22;15006;48.584;9.186;2023-12-14T10:48:00;4.90;99.90
27567;DHT22;15006;48.584;9.186;2023-12-14T10:50:29;4.90;99.90
27567;DHT22;15006;48.584;9.186;2023-12-14T10:52:57;5.00;99.90
27567;DHT22;15006;48.584;9.186;2023-12-14T10:58:09;5.10;99.90
27567;DHT22;15006;48.584;9.186;2023-12-14T11:00:37;5.10;99.90
27567;DHT22;15006;48.584;9.186;2023-12-14T11:03:06;5.20;99.90
27567;DHT22;15006;48.584;9.186;2023-12-14T11:05:35;5.30;99.90
27567;DHT22;15006;48.584;9.186;2023-12-14T11:08:03;5.30;99.90
27567;DHT22;15006;48.584;9.186;2023-12-14T11:10:41;5.40;99.90
27567;DHT22;15006;48.584;9.186;2023-12-14T11:13:09;5.50;99.90
27567;DHT22;15006;48.584;9.186;2023-12-14T11:15:38;5.50;99.90
27567;DHT22;15006;48.584;9.186;2023-12-14T11:23:16;5.80;99.90
27567;DHT22;15006;48.584;9.186;2023-12-14T11:26:05;5.90;99.90
27567;DHT22;15006;48.584;9.186;2023-12-14T11:28:33;5.90;99.90
27567;DHT22;15006;48.584;9.186;2023-12-14T11:31:04;6.10;99.90
27567;DHT22;15006;48.584;9.186;2023-12-14T11:33:33;6.10;99.90
27567;DHT22;15006;48.584;9.186;2023-12-14T11:36:02;6.20;99.90
27567;DHT22;15006;48.584;9.186;2023-12-14T11:38:31;6.20;99.90
27567;DHT22;15006;48.584;9.186;2023-12-14T11:40:59;6.30;99.90
27567;DHT22;15006;48.584;9.186;2023-12-14T11:43:26;6.30;99.90
27567;DHT22;15006;48.584;9.186;2023-12-14T11:45:52;6.40;99.90
27567;DHT22;15006;48.584;9.186;2023-12-14T11:48:20;6.40;99.90
27567;DHT22;15006;48.584;9.186;2023-12-14T11:50:46;6.50;99.90
27567;DHT22;15006;48.584;9.186;2023-12-14T11:53:12;6.60;99.90
27567;DHT22;15006;48.584;9.186;2023-12-14T11:55:40;6.60;99.90
27567;DHT22;15006;48.584;9.186;2023-12-14T11:58:08;6.60;99.90
27567;DHT22;15006;48.584;9.186;2023-12-14T12:00:35;6.50;99.90
27567;DHT22;15006;48.584;9.186;2023-12-14T12:03:17;6.50;99.90
27567;DHT22;15006;48.584;9.186;2023-12-14T12:05:47;6.40;99.90
27567;DHT22;15006;48.584;9.186;2023-12-14T12:08:14;6.30;99.90
27567;DHT22;15006;48.584;9.186;2023-12-14T12:10:42;6.20;99.90
27567;DHT22;15006;48.584;9.186;2023-12-14T12:13:17;6.10;99.90
27567;DHT22;15006;48.584;9.186;2023-12-14T12:15:44;6.00;99.90
27567;DHT22;15006;48.584;9.186;2023-12-14T12:18:12;5.90;99.90
27567;DHT22;15006;48.584;9.186;2023-12-14T12:20:39;5.80;99.90
27567;DHT22;15006;48.584;9.186;2023-12-14T12:23:05;5.80;99.90
27567;DHT22;15006;48.584;9.186;2023-12-14T12:25:32;5.60;99.90
27567;DHT22;15006;48.584;9.186;2023-12-14T12:27:59;5.60;99.90
27567;DHT22;15006;48.584;9.186;2023-12-14T12:30:27;5.50;99.90
27567;DHT22;15006;48.584;9.186;2023-12-14T12:32:53;5.50;99.90
27567;DHT22;15006;48.584;9.186;2023-12-14T12:35:22;5.40;99.90
27567;DHT22;15006;48.584;9.186;2023-12-14T12:37:49;5.30;99.90
27567;DHT22;15006;48.584;9.186;2023-12-14T12:40:20;5.30;99.90
27567;DHT22;15006;48.584;9.186;2023-12-14T12:42:47;5.20;99.90
27567;DHT22;15006;48.584;9.186;2023-12-14T12:45:15;5.10;99.90
27567;DHT22;15006;48.584;9.186;2023-12-14T12:47:45;5.00;99.90
27567;DHT22;15006;48.584;9.186;2023-12-14T12:50:11;5.00;99.90
27567;DHT22;15006;48.584;9.186;2023-12-14T12:52:38;5.00;99.90
27567;DHT22;15006;48.584;9.186;2023-12-14T12:55:07;5.00;99.90
27567;DHT22;15006;48.584;9.186;2023-12-14T12:57:33;5.00;99.90
27567;DHT22;15006;48.584;9.186;2023-12-14T12:59:59;4.90;99.90
27567;DHT22;15006;48.584;9.186;2023-12-14T13:02:25;4.90;99.90
27567;DHT22;15006;48.584;9.186;2023-12-14T13:04:51;4.90;99.90
27567;DHT22;15006;48.584;9.186;2023-12-14T13:07:17;4.90;99.90
27567;DHT22;15006;48.584;9.186;2023-12-14T13:09:44;4.90;99.90
27567;DHT22;15006;48.584;9.186;2023-12-14T13:12:10;4.90;99.90
27567;DHT22;15006;48.584;9.186;2023-12-14T13:14:36;4.90;99.90
27567;DHT22;15006;48.584;9.186;2023-12-14T13:17:02;4.90;99.90
27567;DHT22;15006;48.584;9.186;2023-12-14T13:19:28;4.90;99.90
27567;DHT22;15006;48.584;9.186;2023-12-14T13:21:54;4.90;99.90
27567;DHT22;15006;48.584;9.186;2023-12-14T13:24:23;5.00;99.90
27567;DHT22;15006;48.584;9.186;2023-12-14T13:26:49;5.00;99.90
27567;DHT22;15006;48.584;9.186;2023-12-14T13:29:16;5.00;99.90
27567;DHT22;15006;48.584;9.186;2023-12-14T13:31:42;5.00;99.90
27567;DHT22;15006;48.584;9.186;2023-12-14T13:34:08;5.00;99.90
27567;DHT22;15006;48.584;9.186;2023-12-14T13:36:33;5.10;99.90
27567;DHT22;15006;48.584;9.186;2023-12-14T13:39:00;5.00;99.90
27567;DHT22;15006;48.584;9.186;2023-12-14T13:41:27;5.00;99.90
27567;DHT22;15006;48.584;9.186;2023-12-14T13:43:53;5.00;99.90
27567;DHT22;15006;48.584;9.186;2023-12-14T13:46:19;5.10;99.90
27567;DHT22;15006;48.584;9.186;2023-12-14T13:48:45;5.10;99.90
27567;DHT22;15006;48.584;9.186;2023-12-14T13:51:11;5.10;99.90
27567;DHT22;15006;48.584;9.186;2023-12-14T13:53:37;5.20;99.90
27567;DHT22;15006;48.584;9.186;2023-12-14T13:56:04;5.20;99.90
27567;DHT22;15006;48.584;9.186;2023-12-14T13:58:30;5.20;99.90
27567;DHT22;15006;48.584;9.186;2023-12-14T14:00:56;5.20;99.90
27567;DHT22;15006;48.584;9.186;2023-12-14T14:03:22;5.20;99.90
27567;DHT22;15006;48.584;9.186;2023-12-14T14:05:48;5.30;99.90
27567;DHT22;15006;48.584;9.186;2023-12-14T14:08:14;5.30;99.90
27567;DHT22;15006;48.584;9.186;2023-12-14T14:10:40;5.30;99.90
27567;DHT22;15006;48.584;9.186;2023-12-14T14:13:06;5.30;99.90
27567;DHT22;15006;48.584;9.186;2023-12-14T14:15:32;5.20;99.90
27567;DHT22;15006;48.584;9.186;2023-12-14T14:17:58;5.10;99.90
27567;DHT22;15006;48.584;9.186;2023-12-14T14:20:24;5.10;99.90
27567;DHT22;15006;48.584;9.186;2023-12-14T14:22:50;5.00;99.90
27567;DHT22;15006;48.584;9.186;2023-12-14T14:25:16;4.90;99.90
27567;DHT22;15006;48.584;9.186;2023-12-14T14:27:42;4.80;99.90
27567;DHT22;15006;48.584;9.186;2023-12-14T14:30:08;4.70;99.90
27567;DHT22;15006;48.584;9.186;2023-12-14T14:32:34;4.60;99.90
27567;DHT22;15006;48.584;9.186;2023-12-14T14:35:04;4.60;99.90
27567;DHT22;15006;48.584;9.186;2023-12-14T14:37:30;4.50;99.90
27567;DHT22;15006;48.584;9.186;2023-12-14T14:39:56;4.40;99.90
27567;DHT22;15006;48.584;9.186;2023-12-14T14:42:22;4.30;99.90
27567;DHT22;15006;48.584;9.186;2023-12-14T14:44:49;4.30;99.90
27567;DHT22;15006;48.584;9.186;2023-12-14T14:47:14;4.20;99.90
27567;DHT22;15006;48.584;9.186;2023-12-14T14:49:40;4.20;99.90
27567;DHT22;15006;48.584;9.186;2023-12-14T14:52:06;4.20;99.90
27567;DHT22;15006;48.584;9.186;2023-12-14T14:54:32;4.10;99.90
27567;DHT22;15006;48.584;9.186;2023-12-14T14:56:58;4.00;99.90
27567;DHT22;15006;48.584;9.186;2023-12-14T14:59:24;4.00;99.90
27567;DHT22;15006;48.584;9.186;2023-12-14T15:01:52;4.00;99.90
27567;DHT22;15006;48.584;9.186;2023-12-14T15:04:18;3.90;99.90
27567;DHT22;15006;48.584;9.186;2023-12-14T15:06:44;3.90;99.90
27567;DHT22;15006;48.584;9.186;2023-12-14T15:09:10;3.90;99.90
27567;DHT22;15006;48.584;9.186;2023-12-14T15:11:38;3.90;99.90
27567;DHT22;15006;48.584;9.186;2023-12-14T15:14:04;3.90;99.90
27567;DHT22;15006;48.584;9.186;2023-12-14T15:16:30;3.80;99.90
27567;DHT22;15006;48.584;9.186;2023-12-14T15:18:56;3.80;99.90
27567;DHT22;15006;48.584;9.186;2023-12-14T15:21:22;3.80;99.90
27567;DHT22;15006;48.584;9.186;2023-12-14T15:23:48;3.80;99.90
27567;DHT22;15006;48.584;9.186;2023-12-14T15:26:14;3.80;99.90
27567;DHT22;15006;48.584;9.186;2023-12-14T15:28:41;3.80;99.90
27567;DHT22;15006;48.584;9.186;2023-12-14T15:31:07;3.80;99.90
27567;DHT22;15006;48.584;9.186;2023-12-14T15:33:33;3.70;99.90
27567;DHT22;15006;48.584;9.186;2023-12-14T15:35:59;3.70;99.90
27567;DHT22;15006;48.584;9.186;2023-12-14T15:38:26;3.70;99.90
27567;DHT22;15006;48.584;9.186;2023-12-14T15:40:55;3.70;99.90
27567;DHT22;15006;48.584;9.186;2023-12-14T15:43:21;3.70;99.90
27567;DHT22;15006;48.584;9.186;2023-12-14T15:45:47;3.70;99.90
27567;DHT22;15006;48.584;9.186;2023-12-14T15:48:14;3.70;99.90